sensor_id;sensor_type;location;lat;lon;timestamp;pressure;altitude;pressure_sealevel;temperature;humidity
3082;BME280;1551;51.046;7.010;2023-04-06T00:01:00;101155.63;;;4.71;nan
3082;BME280;1551;51.046;7.010;2023-04-06T00:03:49;101152.31;;;4.73;nan
3082;BME280;1551;51.046;7.010;2023-04-06T00:06:37;101152.16;;;4.69;nan
3082;BME280;1551;51.046;7.010;2023-04-06T00:09:26;101146.09;;;4.59;nan
3082;BME280;1551;51.046;7.010;2023-04-06T00:12:15;101126.41;;;4.48;nan
3082;BME280;1551;51.046;7.010;2023-04-06T00:15:05;101146.19;;;4.64;nan
3082;BME280;1551;51.046;7.010;2023-04-06T00:17:55;101134.25;;;4.60;nan
3082;BME280;1551;51.046;7.010;2023-04-06T00:20:44;101141.84;;;4.60;nan
3082;BME280;1551;51.046;7.010;2023-04-06T00:23:33;101139.97;;;4.51;nan
3082;BME280;1551;51.046;7.010;2023-04-06T00:26:22;101139.88;;;4.45;nan
3082;BME280;1551;51.046;7.010;2023-04-06T00:29:12;101137.75;;;4.26;nan
3082;BME280;1551;51.046;7.010;2023-04-06T00:32:02;101137.53;;;4.17;nan
3082;BME280;1551;51.046;7.010;2023-04-06T00:34:51;101130.88;;;4.22;nan
3082;BME280;1551;51.046;7.010;2023-04-06T00:37:41;101134.09;;;4.15;nan
3082;BME280;1551;51.046;7.010;2023-04-06T00:40:30;101114.97;;;3.92;nan
3082;BME280;1551;51.046;7.010;2023-04-06T00:43:20;101125.94;;;3.91;nan
3082;BME280;1551;51.046;7.010;2023-04-06T00:46:09;101121.88;;;3.97;nan
3082;BME280;1551;51.046;7.010;2023-04-06T00:48:58;101124.69;;;4.09;nan
3082;BME280;1551;51.046;7.010;2023-04-06T00:51:47;101128.03;;;4.08;nan
3082;BME280;1551;51.046;7.010;2023-04-06T00:54:37;101127.16;;;4.08;nan
3082;BME280;1551;51.046;7.010;2023-04-06T00:57:26;101118.69;;;4.06;nan
3082;BME280;1551;51.046;7.010;2023-04-06T01:00:18;101118.75;;;4.07;nan
3082;BME280;1551;51.046;7.010;2023-04-06T01:03:09;101108.41;;;3.98;nan
3082;BME280;1551;51.046;7.010;2023-04-06T01:06:02;101108.44;;;4.00;nan
3082;BME280;1551;51.046;7.010;2023-04-06T01:08:58;101107.59;;;4.01;nan
3082;BME280;1551;51.046;7.010;2023-04-06T01:11:49;101103.44;;;4.03;nan
3082;BME280;1551;51.046;7.010;2023-04-06T01:14:41;101099.22;;;4.03;nan
3082;BME280;1551;51.046;7.010;2023-04-06T01:17:30;101090.69;;;3.98;nan
3082;BME280;1551;51.046;7.010;2023-04-06T01:20:26;101066.75;;;3.86;nan
3082;BME280;1551;51.046;7.010;2023-04-06T01:23:16;101085.56;;;3.97;nan
3082;BME280;1551;51.046;7.010;2023-04-06T01:26:08;101065.00;;;3.85;nan
3082;BME280;1551;51.046;7.010;2023-04-06T01:28:57;101074.38;;;3.87;nan
3082;BME280;1551;51.046;7.010;2023-04-06T01:31:51;101058.88;;;3.75;nan
3082;BME280;1551;51.046;7.010;2023-04-06T01:34:40;101069.75;;;3.70;nan
3082;BME280;1551;51.046;7.010;2023-04-06T01:37:30;101069.63;;;3.65;nan
3082;BME280;1551;51.046;7.010;2023-04-06T01:40:22;101056.00;;;3.59;nan
3082;BME280;1551;51.046;7.010;2023-04-06T01:43:14;101061.84;;;3.56;nan
3082;BME280;1551;51.046;7.010;2023-04-06T01:46:21;101052.31;;;3.47;nan
3082;BME280;1551;51.046;7.010;2023-04-06T01:49:10;101063.88;;;3.38;nan
3082;BME280;1551;51.046;7.010;2023-04-06T01:52:02;101060.81;;;3.49;nan
3082;BME280;1551;51.046;7.010;2023-04-06T01:54:53;101057.56;;;3.55;nan
3082;BME280;1551;51.046;7.010;2023-04-06T01:58:01;101062.66;;;3.57;nan
3082;BME280;1551;51.046;7.010;2023-04-06T02:00:58;101050.66;;;3.48;nan
3082;BME280;1551;51.046;7.010;2023-04-06T02:03:48;101064.06;;;3.44;nan
3082;BME280;1551;51.046;7.010;2023-04-06T02:06:37;101054.53;;;3.34;nan
3082;BME280;1551;51.046;7.010;2023-04-06T02:09:29;101047.78;;;3.34;nan
3082;BME280;1551;51.046;7.010;2023-04-06T02:12:18;101055.47;;;3.37;nan
3082;BME280;1551;51.046;7.010;2023-04-06T02:15:08;101052.13;;;3.40;nan
3082;BME280;1551;51.046;7.010;2023-04-06T02:17:58;101058.94;;;3.42;nan
3082;BME280;1551;51.046;7.010;2023-04-06T02:20:48;101047.91;;;3.39;nan
3082;BME280;1551;51.046;7.010;2023-04-06T02:23:37;101051.25;;;3.38;nan
3082;BME280;1551;51.046;7.010;2023-04-06T02:26:26;101053.22;;;3.17;nan
3082;BME280;1551;51.046;7.010;2023-04-06T02:29:15;101046.25;;;3.07;nan
3082;BME280;1551;51.046;7.010;2023-04-06T02:32:04;101043.53;;;3.01;nan
3082;BME280;1551;51.046;7.010;2023-04-06T02:34:55;101049.44;;;3.00;nan
3082;BME280;1551;51.046;7.010;2023-04-06T02:37:44;101047.84;;;3.03;nan
3082;BME280;1551;51.046;7.010;2023-04-06T02:40:33;101046.28;;;3.08;nan
3082;BME280;1551;51.046;7.010;2023-04-06T02:43:32;101043.09;;;3.15;nan
3082;BME280;1551;51.046;7.010;2023-04-06T02:46:35;101037.06;;;3.10;nan
3082;BME280;1551;51.046;7.010;2023-04-06T02:49:25;101040.91;;;2.96;nan
3082;BME280;1551;51.046;7.010;2023-04-06T02:52:18;101040.81;;;2.93;nan
3082;BME280;1551;51.046;7.010;2023-04-06T02:55:07;101037.25;;;2.85;nan
3082;BME280;1551;51.046;7.010;2023-04-06T02:57:56;101037.25;;;2.85;nan
3082;BME280;1551;51.046;7.010;2023-04-06T03:00:50;101024.59;;;2.84;nan
3082;BME280;1551;51.046;7.010;2023-04-06T03:03:39;101032.88;;;2.79;nan
3082;BME280;1551;51.046;7.010;2023-04-06T03:06:34;101029.78;;;2.90;nan
3082;BME280;1551;51.046;7.010;2023-04-06T03:09:33;101020.47;;;2.89;nan
3082;BME280;1551;51.046;7.010;2023-04-06T03:12:22;101030.69;;;2.93;nan
3082;BME280;1551;51.046;7.010;2023-04-06T03:15:36;101033.75;;;2.80;nan
3082;BME280;1551;51.046;7.010;2023-04-06T03:18:35;101031.97;;;2.77;nan
3082;BME280;1551;51.046;7.010;2023-04-06T03:21:24;101030.94;;;2.69;nan
3082;BME280;1551;51.046;7.010;2023-04-06T03:24:15;101032.00;;;2.79;nan
3082;BME280;1551;51.046;7.010;2023-04-06T03:27:05;101028.00;;;2.86;nan
3082;BME280;1551;51.046;7.010;2023-04-06T03:29:55;101027.38;;;2.94;nan
3082;BME280;1551;51.046;7.010;2023-04-06T03:32:51;101029.91;;;2.94;nan
3082;BME280;1551;51.046;7.010;2023-04-06T03:35:43;101029.88;;;2.93;nan
3082;BME280;1551;51.046;7.010;2023-04-06T03:38:32;101028.25;;;2.96;nan
3082;BME280;1551;51.046;7.010;2023-04-06T03:41:21;101031.56;;;2.94;nan
3082;BME280;1551;51.046;7.010;2023-04-06T03:44:18;101038.75;;;2.78;nan
3082;BME280;1551;51.046;7.010;2023-04-06T03:47:07;101029.13;;;2.65;nan
3082;BME280;1551;51.046;7.010;2023-04-06T03:49:56;101023.69;;;2.52;nan
3082;BME280;1551;51.046;7.010;2023-04-06T03:52:45;101027.97;;;2.54;nan
3082;BME280;1551;51.046;7.010;2023-04-06T03:55:34;101033.41;;;2.68;nan
3082;BME280;1551;51.046;7.010;2023-04-06T03:58:23;101038.66;;;2.74;nan
3082;BME280;1551;51.046;7.010;2023-04-06T04:01:12;101033.53;;;2.72;nan
3082;BME280;1551;51.046;7.010;2023-04-06T04:04:00;101036.69;;;2.65;nan
3082;BME280;1551;51.046;7.010;2023-04-06T04:06:49;101035.28;;;2.75;nan
3082;BME280;1551;51.046;7.010;2023-04-06T04:09:39;101026.94;;;2.77;nan
3082;BME280;1551;51.046;7.010;2023-04-06T04:12:28;101023.50;;;2.75;nan
3082;BME280;1551;51.046;7.010;2023-04-06T04:15:20;101026.00;;;2.74;nan
3082;BME280;1551;51.046;7.010;2023-04-06T04:18:10;101034.38;;;2.73;nan
3082;BME280;1551;51.046;7.010;2023-04-06T04:20:59;101031.88;;;2.73;nan
3082;BME280;1551;51.046;7.010;2023-04-06T04:23:49;101032.63;;;2.70;nan
3082;BME280;1551;51.046;7.010;2023-04-06T04:26:39;101030.09;;;2.70;nan
3082;BME280;1551;51.046;7.010;2023-04-06T04:29:29;101030.75;;;2.63;nan
3082;BME280;1551;51.046;7.010;2023-04-06T04:32:23;101028.25;;;2.65;nan
3082;BME280;1551;51.046;7.010;2023-04-06T04:35:16;101033.84;;;2.53;nan
3082;BME280;1551;51.046;7.010;2023-04-06T04:38:05;101027.81;;;2.48;nan
3082;BME280;1551;51.046;7.010;2023-04-06T04:40:56;101033.66;;;2.46;nan
3082;BME280;1551;51.046;7.010;2023-04-06T04:43:45;101023.47;;;2.44;nan
3082;BME280;1551;51.046;7.010;2023-04-06T04:46:35;101040.31;;;2.44;nan
3082;BME280;1551;51.046;7.010;2023-04-06T04:49:24;101032.56;;;2.38;nan
3082;BME280;1551;51.046;7.010;2023-04-06T04:52:14;101032.41;;;2.32;nan
3082;BME280;1551;51.046;7.010;2023-04-06T04:55:13;101037.81;;;2.44;nan
3082;BME280;1551;51.046;7.010;2023-04-06T04:58:05;101032.91;;;2.50;nan
3082;BME280;1551;51.046;7.010;2023-04-06T05:01:09;101030.50;;;2.54;nan
3082;BME280;1551;51.046;7.010;2023-04-06T05:03:58;101033.16;;;2.59;nan
3082;BME280;1551;51.046;7.010;2023-04-06T05:06:47;101032.38;;;2.61;nan
3082;BME280;1551;51.046;7.010;2023-04-06T05:09:37;101030.75;;;2.63;nan
3082;BME280;1551;51.046;7.010;2023-04-06T05:12:26;101031.84;;;2.71;nan
3082;BME280;1551;51.046;7.010;2023-04-06T05:15:27;101036.88;;;2.71;nan
3082;BME280;1551;51.046;7.010;2023-04-06T05:18:22;101037.94;;;2.79;nan
3082;BME280;1551;51.046;7.010;2023-04-06T05:21:11;101030.53;;;2.86;nan
3082;BME280;1551;51.046;7.010;2023-04-06T05:24:20;101035.53;;;2.84;nan
3082;BME280;1551;51.046;7.010;2023-04-06T05:27:11;101030.47;;;2.84;nan
3082;BME280;1551;51.046;7.010;2023-04-06T05:30:01;101034.16;;;2.95;nan
3082;BME280;1551;51.046;7.010;2023-04-06T05:32:52;101036.03;;;3.02;nan
3082;BME280;1551;51.046;7.010;2023-04-06T05:35:45;101034.53;;;3.10;nan
3082;BME280;1551;51.046;7.010;2023-04-06T05:38:35;101037.22;;;3.16;nan
3082;BME280;1551;51.046;7.010;2023-04-06T05:41:34;101034.94;;;3.25;nan
3082;BME280;1551;51.046;7.010;2023-04-06T05:44:24;101040.91;;;3.29;nan
3082;BME280;1551;51.046;7.010;2023-04-06T05:47:23;101032.72;;;3.39;nan
3082;BME280;1551;51.046;7.010;2023-04-06T05:50:20;101032.88;;;3.45;nan
3082;BME280;1551;51.046;7.010;2023-04-06T05:53:09;101042.41;;;3.57;nan
3082;BME280;1551;51.046;7.010;2023-04-06T05:56:04;101049.38;;;3.65;nan
3082;BME280;1551;51.046;7.010;2023-04-06T05:58:53;101043.84;;;3.80;nan
3082;BME280;1551;51.046;7.010;2023-04-06T06:01:48;101043.19;;;3.90;nan
3082;BME280;1551;51.046;7.010;2023-04-06T06:04:38;101048.63;;;4.06;nan
3082;BME280;1551;51.046;7.010;2023-04-06T06:07:27;101043.03;;;4.20;nan
3082;BME280;1551;51.046;7.010;2023-04-06T06:10:22;101047.53;;;4.34;nan
3082;BME280;1551;51.046;7.010;2023-04-06T06:13:12;101042.78;;;4.49;nan
3082;BME280;1551;51.046;7.010;2023-04-06T06:16:02;101047.50;;;4.73;nan
3082;BME280;1551;51.046;7.010;2023-04-06T06:18:54;101041.16;;;4.95;nan
3082;BME280;1551;51.046;7.010;2023-04-06T06:21:44;101041.47;;;5.13;nan
3082;BME280;1551;51.046;7.010;2023-04-06T06:24:32;101040.19;;;5.37;nan
3082;BME280;1551;51.046;7.010;2023-04-06T06:27:22;101042.25;;;5.60;nan
3082;BME280;1551;51.046;7.010;2023-04-06T06:30:12;101037.66;;;5.88;nan
3082;BME280;1551;51.046;7.010;2023-04-06T06:33:03;101033.75;;;6.14;nan
3082;BME280;1551;51.046;7.010;2023-04-06T06:35:53;101036.56;;;6.34;nan
3082;BME280;1551;51.046;7.010;2023-04-06T06:38:42;101038.56;;;6.59;nan
3082;BME280;1551;51.046;7.010;2023-04-06T06:41:32;101035.47;;;6.84;nan
3082;BME280;1551;51.046;7.010;2023-04-06T06:44:21;101033.22;;;7.16;nan
3082;BME280;1551;51.046;7.010;2023-04-06T06:47:11;101032.59;;;7.41;nan
3082;BME280;1551;51.046;7.010;2023-04-06T06:50:00;101041.28;;;7.68;nan
3082;BME280;1551;51.046;7.010;2023-04-06T06:52:49;101039.78;;;7.95;nan
3082;BME280;1551;51.046;7.010;2023-04-06T06:55:38;101039.94;;;8.22;nan
3082;BME280;1551;51.046;7.010;2023-04-06T06:58:27;101039.25;;;8.49;nan
3082;BME280;1551;51.046;7.010;2023-04-06T07:01:17;101036.72;;;8.61;nan
3082;BME280;1551;51.046;7.010;2023-04-06T07:04:06;101039.25;;;8.58;nan
3082;BME280;1551;51.046;7.010;2023-04-06T07:06:56;101029.09;;;8.70;nan
3082;BME280;1551;51.046;7.010;2023-04-06T07:09:45;101030.03;;;8.95;nan
3082;BME280;1551;51.046;7.010;2023-04-06T07:12:34;101024.94;;;8.95;nan
3082;BME280;1551;51.046;7.010;2023-04-06T07:15:23;101028.31;;;8.92;nan
3082;BME280;1551;51.046;7.010;2023-04-06T07:18:13;101019.84;;;9.16;nan
3082;BME280;1551;51.046;7.010;2023-04-06T07:21:04;101026.66;;;9.55;nan
3082;BME280;1551;51.046;7.010;2023-04-06T07:23:53;101016.41;;;9.73;nan
3082;BME280;1551;51.046;7.010;2023-04-06T07:26:42;101018.13;;;9.89;nan
3082;BME280;1551;51.046;7.010;2023-04-06T07:29:31;101017.19;;;10.20;nan
3082;BME280;1551;51.046;7.010;2023-04-06T07:32:20;101017.09;;;10.48;nan
3082;BME280;1551;51.046;7.010;2023-04-06T07:35:09;101008.28;;;10.98;nan
3082;BME280;1551;51.046;7.010;2023-04-06T07:37:58;101017.41;;;11.31;nan
3082;BME280;1551;51.046;7.010;2023-04-06T07:40:48;101023.19;;;11.57;nan
3082;BME280;1551;51.046;7.010;2023-04-06T07:43:37;101017.72;;;11.95;nan
3082;BME280;1551;51.046;7.010;2023-04-06T07:46:27;101029.38;;;12.22;nan
3082;BME280;1551;51.046;7.010;2023-04-06T07:49:17;101021.16;;;12.66;nan
3082;BME280;1551;51.046;7.010;2023-04-06T07:52:07;101024.28;;;12.20;nan
3082;BME280;1551;51.046;7.010;2023-04-06T07:54:56;101022.34;;;12.39;nan
3082;BME280;1551;51.046;7.010;2023-04-06T07:57:44;101021.84;;;12.77;nan
3082;BME280;1551;51.046;7.010;2023-04-06T08:00:33;101016.34;;;13.02;nan
3082;BME280;1551;51.046;7.010;2023-04-06T08:03:23;101011.78;;;12.62;nan
3082;BME280;1551;51.046;7.010;2023-04-06T08:06:14;101006.91;;;12.40;nan
3082;BME280;1551;51.046;7.010;2023-04-06T08:09:04;101008.56;;;12.46;nan
3082;BME280;1551;51.046;7.010;2023-04-06T08:11:53;101009.69;;;12.24;nan
3082;BME280;1551;51.046;7.010;2023-04-06T08:14:42;101004.91;;;12.65;nan
3082;BME280;1551;51.046;7.010;2023-04-06T08:17:31;101005.31;;;12.94;nan
3082;BME280;1551;51.046;7.010;2023-04-06T08:20:20;101000.66;;;13.22;nan
3082;BME280;1551;51.046;7.010;2023-04-06T08:23:10;101004.31;;;13.58;nan
3082;BME280;1551;51.046;7.010;2023-04-06T08:25:59;101000.28;;;13.45;nan
3082;BME280;1551;51.046;7.010;2023-04-06T08:28:48;101001.72;;;13.61;nan
3082;BME280;1551;51.046;7.010;2023-04-06T08:31:37;100995.91;;;13.96;nan
3082;BME280;1551;51.046;7.010;2023-04-06T08:34:26;100991.75;;;14.34;nan
3082;BME280;1551;51.046;7.010;2023-04-06T08:37:15;100994.84;;;14.50;nan
3082;BME280;1551;51.046;7.010;2023-04-06T08:40:05;101000.59;;;14.63;nan
3082;BME280;1551;51.046;7.010;2023-04-06T08:42:56;100999.38;;;14.79;nan
3082;BME280;1551;51.046;7.010;2023-04-06T08:45:47;100994.78;;;14.91;nan
3082;BME280;1551;51.046;7.010;2023-04-06T08:48:36;100993.28;;;15.18;nan
3082;BME280;1551;51.046;7.010;2023-04-06T08:51:28;100991.06;;;15.38;nan
3082;BME280;1551;51.046;7.010;2023-04-06T08:54:18;100993.31;;;15.53;nan
3082;BME280;1551;51.046;7.010;2023-04-06T08:57:08;100994.09;;;15.55;nan
3082;BME280;1551;51.046;7.010;2023-04-06T09:00:00;100994.72;;;15.65;nan
3082;BME280;1551;51.046;7.010;2023-04-06T09:02:49;100991.66;;;16.14;nan
3082;BME280;1551;51.046;7.010;2023-04-06T09:05:39;100993.13;;;16.22;nan
3082;BME280;1551;51.046;7.010;2023-04-06T09:08:28;100994.44;;;16.37;nan
3082;BME280;1551;51.046;7.010;2023-04-06T09:11:18;100989.25;;;16.37;nan
3082;BME280;1551;51.046;7.010;2023-04-06T09:14:07;100980.97;;;16.84;nan
3082;BME280;1551;51.046;7.010;2023-04-06T09:16:56;100982.69;;;16.56;nan
3082;BME280;1551;51.046;7.010;2023-04-06T09:19:48;100985.78;;;16.69;nan
3082;BME280;1551;51.046;7.010;2023-04-06T09:22:39;100980.41;;;16.75;nan
3082;BME280;1551;51.046;7.010;2023-04-06T09:25:28;100986.31;;;17.06;nan
3082;BME280;1551;51.046;7.010;2023-04-06T09:28:17;100978.31;;;17.13;nan
3082;BME280;1551;51.046;7.010;2023-04-06T09:31:06;100977.56;;;17.36;nan
3082;BME280;1551;51.046;7.010;2023-04-06T09:33:56;100982.53;;;17.42;nan
3082;BME280;1551;51.046;7.010;2023-04-06T09:36:46;100948.78;;;17.21;nan
3082;BME280;1551;51.046;7.010;2023-04-06T09:39:35;100964.63;;;17.36;nan
3082;BME280;1551;51.046;7.010;2023-04-06T09:42:25;100963.78;;;17.62;nan
3082;BME280;1551;51.046;7.010;2023-04-06T09:45:15;100964.63;;;17.36;nan
3082;BME280;1551;51.046;7.010;2023-04-06T09:48:04;100950.69;;;17.14;nan
3082;BME280;1551;51.046;7.010;2023-04-06T09:50:59;100963.06;;;17.04;nan
3082;BME280;1551;51.046;7.010;2023-04-06T09:53:52;100973.47;;;17.29;nan
3082;BME280;1551;51.046;7.010;2023-04-06T09:56:47;100964.47;;;16.88;nan
3082;BME280;1551;51.046;7.010;2023-04-06T10:02:51;100956.09;;;17.33;nan
3082;BME280;1551;51.046;7.010;2023-04-06T10:05:52;100949.34;;;17.02;nan
3082;BME280;1551;51.046;7.010;2023-04-06T10:08:45;100958.19;;;17.48;nan
3082;BME280;1551;51.046;7.010;2023-04-06T10:11:36;100958.34;;;16.91;nan
3082;BME280;1551;51.046;7.010;2023-04-06T10:14:25;100959.69;;;17.29;nan
3082;BME280;1551;51.046;7.010;2023-04-06T10:17:14;100961.06;;;18.13;nan
3082;BME280;1551;51.046;7.010;2023-04-06T10:20:09;100959.19;;;18.63;nan
3082;BME280;1551;51.046;7.010;2023-04-06T10:23:08;100968.06;;;19.42;nan
3082;BME280;1551;51.046;7.010;2023-04-06T10:26:00;100964.94;;;19.95;nan
3082;BME280;1551;51.046;7.010;2023-04-06T10:28:49;100952.25;;;20.44;nan
3082;BME280;1551;51.046;7.010;2023-04-06T10:31:41;100964.00;;;19.96;nan
3082;BME280;1551;51.046;7.010;2023-04-06T10:34:35;100953.66;;;19.55;nan
3082;BME280;1551;51.046;7.010;2023-04-06T10:37:24;100960.09;;;18.83;nan
3082;BME280;1551;51.046;7.010;2023-04-06T10:40:22;100958.34;;;17.69;nan
3082;BME280;1551;51.046;7.010;2023-04-06T10:43:19;100960.06;;;17.18;nan
3082;BME280;1551;51.046;7.010;2023-04-06T10:46:09;100948.25;;;17.09;nan
3082;BME280;1551;51.046;7.010;2023-04-06T10:49:10;100938.22;;;17.27;nan
3082;BME280;1551;51.046;7.010;2023-04-06T10:52:02;100938.16;;;17.28;nan
3082;BME280;1551;51.046;7.010;2023-04-06T10:54:51;100947.06;;;17.44;nan
3082;BME280;1551;51.046;7.010;2023-04-06T10:57:41;100932.19;;;17.52;nan
3082;BME280;1551;51.046;7.010;2023-04-06T11:00:30;100937.50;;;16.95;nan
3082;BME280;1551;51.046;7.010;2023-04-06T11:03:19;100932.31;;;17.23;nan
3082;BME280;1551;51.046;7.010;2023-04-06T11:06:09;100924.63;;;17.45;nan
3082;BME280;1551;51.046;7.010;2023-04-06T11:08:58;100918.63;;;17.44;nan
3082;BME280;1551;51.046;7.010;2023-04-06T11:11:47;100927.56;;;17.09;nan
3082;BME280;1551;51.046;7.010;2023-04-06T11:14:36;100931.34;;;17.50;nan
3082;BME280;1551;51.046;7.010;2023-04-06T11:17:30;100930.56;;;17.73;nan
3082;BME280;1551;51.046;7.010;2023-04-06T11:20:19;100923.97;;;18.57;nan
3082;BME280;1551;51.046;7.010;2023-04-06T11:23:08;100936.72;;;18.63;nan
3082;BME280;1551;51.046;7.010;2023-04-06T11:25:57;100905.16;;;18.29;nan
3082;BME280;1551;51.046;7.010;2023-04-06T11:28:46;100926.69;;;18.76;nan
3082;BME280;1551;51.046;7.010;2023-04-06T11:31:47;100928.47;;;18.07;nan
3082;BME280;1551;51.046;7.010;2023-04-06T11:34:37;100921.91;;;17.74;nan
3082;BME280;1551;51.046;7.010;2023-04-06T11:37:27;100934.38;;;17.38;nan
3082;BME280;1551;51.046;7.010;2023-04-06T11:40:23;100920.03;;;17.28;nan
3082;BME280;1551;51.046;7.010;2023-04-06T11:43:13;100895.31;;;16.95;nan
3082;BME280;1551;51.046;7.010;2023-04-06T11:46:03;100910.91;;;16.66;nan
3082;BME280;1551;51.046;7.010;2023-04-06T11:48:58;100909.34;;;16.88;nan
3082;BME280;1551;51.046;7.010;2023-04-06T11:51:47;100902.28;;;16.67;nan
3082;BME280;1551;51.046;7.010;2023-04-06T11:54:37;100902.53;;;16.85;nan
3082;BME280;1551;51.046;7.010;2023-04-06T11:57:26;100905.94;;;16.86;nan
3082;BME280;1551;51.046;7.010;2023-04-06T12:00:17;100900.72;;;17.13;nan
3082;BME280;1551;51.046;7.010;2023-04-06T12:03:06;100903.81;;;16.98;nan
3082;BME280;1551;51.046;7.010;2023-04-06T12:05:55;100902.00;;;17.00;nan
3082;BME280;1551;51.046;7.010;2023-04-06T12:08:44;100904.31;;;16.57;nan
3082;BME280;1551;51.046;7.010;2023-04-06T12:11:33;100905.38;;;16.21;nan
3082;BME280;1551;51.046;7.010;2023-04-06T12:14:22;100896.03;;;16.17;nan
3082;BME280;1551;51.046;7.010;2023-04-06T12:17:12;100890.00;;;16.16;nan
3082;BME280;1551;51.046;7.010;2023-04-06T12:20:01;100891.88;;;16.68;nan
3082;BME280;1551;51.046;7.010;2023-04-06T12:22:51;100895.06;;;16.76;nan
3082;BME280;1551;51.046;7.010;2023-04-06T12:25:42;100905.94;;;17.12;nan
3082;BME280;1551;51.046;7.010;2023-04-06T12:28:31;100886.00;;;16.63;nan
3082;BME280;1551;51.046;7.010;2023-04-06T12:31:21;100894.66;;;16.88;nan
3082;BME280;1551;51.046;7.010;2023-04-06T12:34:10;100900.41;;;16.70;nan
3082;BME280;1551;51.046;7.010;2023-04-06T12:37:00;100887.72;;;16.35;nan
3082;BME280;1551;51.046;7.010;2023-04-06T12:39:49;100898.84;;;16.37;nan
3082;BME280;1551;51.046;7.010;2023-04-06T12:42:39;100896.59;;;16.26;nan
3082;BME280;1551;51.046;7.010;2023-04-06T12:45:30;100910.09;;;15.77;nan
3082;BME280;1551;51.046;7.010;2023-04-06T12:48:19;100894.59;;;15.77;nan
3082;BME280;1551;51.046;7.010;2023-04-06T12:51:09;100892.66;;;16.15;nan
3082;BME280;1551;51.046;7.010;2023-04-06T12:53:58;100880.50;;;15.89;nan
3082;BME280;1551;51.046;7.010;2023-04-06T12:56:47;100884.63;;;15.95;nan
3082;BME280;1551;51.046;7.010;2023-04-06T12:59:36;100885.78;;;16.14;nan
3082;BME280;1551;51.046;7.010;2023-04-06T13:02:25;100893.84;;;16.03;nan
3082;BME280;1551;51.046;7.010;2023-04-06T13:05:15;100893.78;;;15.75;nan
3082;BME280;1551;51.046;7.010;2023-04-06T13:08:07;100884.88;;;15.87;nan
3082;BME280;1551;51.046;7.010;2023-04-06T13:10:56;100885.53;;;15.94;nan
3082;BME280;1551;51.046;7.010;2023-04-06T13:13:45;100882.69;;;16.03;nan
3082;BME280;1551;51.046;7.010;2023-04-06T13:16:34;100885.03;;;15.81;nan
3082;BME280;1551;51.046;7.010;2023-04-06T13:19:23;100891.13;;;15.78;nan
3082;BME280;1551;51.046;7.010;2023-04-06T13:22:12;100889.03;;;15.91;nan
3082;BME280;1551;51.046;7.010;2023-04-06T13:25:02;100883.09;;;15.88;nan
3082;BME280;1551;51.046;7.010;2023-04-06T13:27:51;100887.69;;;15.78;nan
3082;BME280;1551;51.046;7.010;2023-04-06T13:30:40;100892.56;;;15.58;nan
3082;BME280;1551;51.046;7.010;2023-04-06T13:33:29;100893.38;;;15.60;nan
3082;BME280;1551;51.046;7.010;2023-04-06T13:36:19;100900.72;;;15.41;nan
3082;BME280;1551;51.046;7.010;2023-04-06T13:39:08;100890.56;;;15.35;nan
3082;BME280;1551;51.046;7.010;2023-04-06T13:41:57;100887.22;;;15.32;nan
3082;BME280;1551;51.046;7.010;2023-04-06T13:44:46;100895.25;;;15.21;nan
3082;BME280;1551;51.046;7.010;2023-04-06T13:47:36;100900.53;;;15.17;nan
3082;BME280;1551;51.046;7.010;2023-04-06T13:50:26;100892.00;;;14.79;nan
3082;BME280;1551;51.046;7.010;2023-04-06T13:53:15;100892.75;;;14.48;nan
3082;BME280;1551;51.046;7.010;2023-04-06T13:56:05;100878.09;;;14.50;nan
3082;BME280;1551;51.046;7.010;2023-04-06T13:58:55;100898.22;;;14.71;nan
3082;BME280;1551;51.046;7.010;2023-04-06T14:01:44;100899.88;;;14.36;nan
3082;BME280;1551;51.046;7.010;2023-04-06T14:04:34;100903.44;;;14.29;nan
3082;BME280;1551;51.046;7.010;2023-04-06T14:07:23;100907.44;;;14.03;nan
3082;BME280;1551;51.046;7.010;2023-04-06T14:10:12;100895.19;;;13.72;nan
3082;BME280;1551;51.046;7.010;2023-04-06T14:13:02;100902.28;;;13.60;nan
3082;BME280;1551;51.046;7.010;2023-04-06T14:15:54;100900.94;;;13.41;nan
3082;BME280;1551;51.046;7.010;2023-04-06T14:18:46;100907.72;;;13.45;nan
3082;BME280;1551;51.046;7.010;2023-04-06T14:21:35;100906.31;;;13.29;nan
3082;BME280;1551;51.046;7.010;2023-04-06T14:24:25;100908.75;;;13.36;nan
3082;BME280;1551;51.046;7.010;2023-04-06T14:27:15;100914.03;;;13.27;nan
3082;BME280;1551;51.046;7.010;2023-04-06T14:30:04;100895.69;;;12.95;nan
3082;BME280;1551;51.046;7.010;2023-04-06T14:32:56;100913.97;;;12.77;nan
3082;BME280;1551;51.046;7.010;2023-04-06T14:35:45;100906.47;;;12.65;nan
3082;BME280;1551;51.046;7.010;2023-04-06T14:38:35;100898.72;;;12.66;nan
3082;BME280;1551;51.046;7.010;2023-04-06T14:41:24;100912.09;;;12.88;nan
3082;BME280;1551;51.046;7.010;2023-04-06T14:44:16;100906.16;;;12.84;nan
3082;BME280;1551;51.046;7.010;2023-04-06T14:47:05;100904.53;;;12.79;nan
3082;BME280;1551;51.046;7.010;2023-04-06T14:49:54;100903.66;;;12.80;nan
3082;BME280;1551;51.046;7.010;2023-04-06T14:52:43;100920.69;;;12.85;nan
3082;BME280;1551;51.046;7.010;2023-04-06T14:55:32;100907.91;;;12.81;nan
3082;BME280;1551;51.046;7.010;2023-04-06T14:58:22;100909.66;;;12.79;nan
3082;BME280;1551;51.046;7.010;2023-04-06T15:01:11;100913.75;;;12.90;nan
3082;BME280;1551;51.046;7.010;2023-04-06T15:04:02;100917.66;;;12.59;nan
3082;BME280;1551;51.046;7.010;2023-04-06T15:06:52;100903.22;;;12.52;nan
3082;BME280;1551;51.046;7.010;2023-04-06T15:09:41;100904.06;;;12.54;nan
3082;BME280;1551;51.046;7.010;2023-04-06T15:12:30;100899.47;;;12.16;nan
3082;BME280;1551;51.046;7.010;2023-04-06T15:15:19;100910.53;;;12.21;nan
3082;BME280;1551;51.046;7.010;2023-04-06T15:18:09;100894.56;;;12.00;nan
3082;BME280;1551;51.046;7.010;2023-04-06T15:20:58;100903.19;;;11.93;nan
3082;BME280;1551;51.046;7.010;2023-04-06T15:23:47;100889.53;;;11.91;nan
3082;BME280;1551;51.046;7.010;2023-04-06T15:26:36;100915.25;;;11.82;nan
3082;BME280;1551;51.046;7.010;2023-04-06T15:29:25;100877.81;;;11.68;nan
3082;BME280;1551;51.046;7.010;2023-04-06T15:32:14;100903.38;;;11.74;nan
3082;BME280;1551;51.046;7.010;2023-04-06T15:35:11;100891.56;;;11.60;nan
3082;BME280;1551;51.046;7.010;2023-04-06T15:38:00;100901.78;;;11.61;nan
3082;BME280;1551;51.046;7.010;2023-04-06T15:40:51;100899.31;;;11.54;nan
3082;BME280;1551;51.046;7.010;2023-04-06T15:43:39;100901.78;;;11.61;nan
3082;BME280;1551;51.046;7.010;2023-04-06T15:46:28;100884.69;;;11.63;nan
3082;BME280;1551;51.046;7.010;2023-04-06T15:49:18;100895.88;;;11.58;nan
3082;BME280;1551;51.046;7.010;2023-04-06T15:52:07;100898.41;;;11.59;nan